sensor_id;sensor_type;location;lat;lon;timestamp;P1;durP1;ratioP1;P2;durP2;ratioP2
11203;SDS011;5659;49.408;11.116;2022-11-20T00:01:25;47.57;;;29.37;;
11203;SDS011;5659;49.408;11.116;2022-11-20T00:03:52;51.80;;;31.73;;
11203;SDS011;5659;49.408;11.116;2022-11-20T00:06:19;53.40;;;31.10;;
11203;SDS011;5659;49.408;11.116;2022-11-20T00:08:45;51.43;;;30.70;;
11203;SDS011;5659;49.408;11.116;2022-11-20T00:11:12;52.63;;;30.30;;
11203;SDS011;5659;49.408;11.116;2022-11-20T00:13:38;53.80;;;32.03;;
11203;SDS011;5659;49.408;11.116;2022-11-20T00:16:05;53.13;;;29.93;;
11203;SDS011;5659;49.408;11.116;2022-11-20T00:18:32;51.13;;;29.83;;
11203;SDS011;5659;49.408;11.116;2022-11-20T00:21:05;52.13;;;31.43;;
11203;SDS011;5659;49.408;11.116;2022-11-20T00:23:32;57.37;;;31.97;;
11203;SDS011;5659;49.408;11.116;2022-11-20T00:26:04;47.13;;;29.13;;
11203;SDS011;5659;49.408;11.116;2022-11-20T00:28:31;52.47;;;29.20;;
11203;SDS011;5659;49.408;11.116;2022-11-20T00:31:04;54.33;;;30.03;;
11203;SDS011;5659;49.408;11.116;2022-11-20T00:33:30;51.17;;;31.47;;
11203;SDS011;5659;49.408;11.116;2022-11-20T00:36:00;53.77;;;30.43;;
11203;SDS011;5659;49.408;11.116;2022-11-20T00:38:26;47.77;;;29.70;;
11203;SDS011;5659;49.408;11.116;2022-11-20T00:40:59;51.07;;;30.97;;
11203;SDS011;5659;49.408;11.116;2022-11-20T00:43:25;53.90;;;29.73;;
11203;SDS011;5659;49.408;11.116;2022-11-20T00:45:56;46.73;;;28.53;;
11203;SDS011;5659;49.408;11.116;2022-11-20T00:48:22;49.23;;;30.10;;
11203;SDS011;5659;49.408;11.116;2022-11-20T00:50:47;50.13;;;30.03;;
11203;SDS011;5659;49.408;11.116;2022-11-20T00:53:13;47.83;;;29.00;;
11203;SDS011;5659;49.408;11.116;2022-11-20T00:55:39;48.30;;;29.50;;
11203;SDS011;5659;49.408;11.116;2022-11-20T00:58:06;50.93;;;30.77;;
11203;SDS011;5659;49.408;11.116;2022-11-20T01:00:32;47.27;;;28.63;;
11203;SDS011;5659;49.408;11.116;2022-11-20T01:02:57;54.43;;;29.80;;
11203;SDS011;5659;49.408;11.116;2022-11-20T01:05:23;47.03;;;28.40;;
11203;SDS011;5659;49.408;11.116;2022-11-20T01:07:49;48.97;;;28.93;;
11203;SDS011;5659;49.408;11.116;2022-11-20T01:10:15;47.53;;;28.60;;
11203;SDS011;5659;49.408;11.116;2022-11-20T01:12:42;51.23;;;29.17;;
11203;SDS011;5659;49.408;11.116;2022-11-20T01:15:08;57.77;;;29.67;;
11203;SDS011;5659;49.408;11.116;2022-11-20T01:17:34;49.27;;;29.63;;
11203;SDS011;5659;49.408;11.116;2022-11-20T01:20:00;52.77;;;29.20;;
11203;SDS011;5659;49.408;11.116;2022-11-20T01:22:26;55.63;;;30.93;;
11203;SDS011;5659;49.408;11.116;2022-11-20T01:24:52;54.03;;;29.77;;
11203;SDS011;5659;49.408;11.116;2022-11-20T01:27:18;59.30;;;31.57;;
11203;SDS011;5659;49.408;11.116;2022-11-20T01:29:43;65.67;;;31.70;;
11203;SDS011;5659;49.408;11.116;2022-11-20T01:32:09;54.80;;;29.90;;
11203;SDS011;5659;49.408;11.116;2022-11-20T01:34:35;53.20;;;29.90;;
11203;SDS011;5659;49.408;11.116;2022-11-20T01:37:01;56.77;;;30.83;;
11203;SDS011;5659;49.408;11.116;2022-11-20T01:39:27;59.60;;;30.23;;
11203;SDS011;5659;49.408;11.116;2022-11-20T01:41:54;64.30;;;31.00;;
11203;SDS011;5659;49.408;11.116;2022-11-20T01:44:45;56.87;;;30.67;;
11203;SDS011;5659;49.408;11.116;2022-11-20T01:47:13;59.27;;;31.87;;
11203;SDS011;5659;49.408;11.116;2022-11-20T01:49:55;59.77;;;30.47;;
11203;SDS011;5659;49.408;11.116;2022-11-20T01:52:23;55.47;;;30.33;;
11203;SDS011;5659;49.408;11.116;2022-11-20T01:54:55;58.90;;;30.83;;
11203;SDS011;5659;49.408;11.116;2022-11-20T01:57:21;55.80;;;31.40;;
11203;SDS011;5659;49.408;11.116;2022-11-20T01:59:51;54.37;;;30.60;;
11203;SDS011;5659;49.408;11.116;2022-11-20T02:02:17;53.70;;;30.33;;
11203;SDS011;5659;49.408;11.116;2022-11-20T02:04:44;65.27;;;31.63;;
11203;SDS011;5659;49.408;11.116;2022-11-20T02:07:10;56.70;;;31.17;;
11203;SDS011;5659;49.408;11.116;2022-11-20T02:09:36;59.07;;;30.87;;
11203;SDS011;5659;49.408;11.116;2022-11-20T02:12:02;59.00;;;30.37;;
11203;SDS011;5659;49.408;11.116;2022-11-20T02:14:28;56.00;;;31.80;;
11203;SDS011;5659;49.408;11.116;2022-11-20T02:16:55;59.30;;;32.07;;
11203;SDS011;5659;49.408;11.116;2022-11-20T02:21:48;63.67;;;30.50;;
11203;SDS011;5659;49.408;11.116;2022-11-20T02:24:16;58.17;;;30.80;;
11203;SDS011;5659;49.408;11.116;2022-11-20T02:29:16;68.30;;;32.00;;
11203;SDS011;5659;49.408;11.116;2022-11-20T02:31:43;57.33;;;30.80;;
11203;SDS011;5659;49.408;11.116;2022-11-20T02:34:09;59.17;;;31.17;;
11203;SDS011;5659;49.408;11.116;2022-11-20T02:36:35;62.53;;;31.07;;
11203;SDS011;5659;49.408;11.116;2022-11-20T02:39:03;74.57;;;30.63;;
11203;SDS011;5659;49.408;11.116;2022-11-20T02:41:33;76.77;;;32.40;;
11203;SDS011;5659;49.408;11.116;2022-11-20T02:43:59;78.17;;;31.43;;
11203;SDS011;5659;49.408;11.116;2022-11-20T02:46:25;65.13;;;31.93;;
11203;SDS011;5659;49.408;11.116;2022-11-20T02:48:51;67.13;;;32.63;;
11203;SDS011;5659;49.408;11.116;2022-11-20T02:51:17;66.17;;;31.13;;
11203;SDS011;5659;49.408;11.116;2022-11-20T02:53:42;60.43;;;30.70;;
11203;SDS011;5659;49.408;11.116;2022-11-20T02:56:08;66.50;;;30.80;;
11203;SDS011;5659;49.408;11.116;2022-11-20T02:58:34;67.80;;;32.87;;
11203;SDS011;5659;49.408;11.116;2022-11-20T03:01:00;60.47;;;33.27;;
11203;SDS011;5659;49.408;11.116;2022-11-20T03:03:26;61.37;;;31.30;;
11203;SDS011;5659;49.408;11.116;2022-11-20T03:05:52;75.40;;;39.10;;
11203;SDS011;5659;49.408;11.116;2022-11-20T03:08:18;72.50;;;37.30;;
11203;SDS011;5659;49.408;11.116;2022-11-20T03:10:44;74.50;;;33.80;;
11203;SDS011;5659;49.408;11.116;2022-11-20T03:13:10;83.37;;;36.47;;
11203;SDS011;5659;49.408;11.116;2022-11-20T03:15:36;68.63;;;33.43;;
11203;SDS011;5659;49.408;11.116;2022-11-20T03:18:03;62.00;;;31.00;;
11203;SDS011;5659;49.408;11.116;2022-11-20T03:20:29;82.33;;;30.10;;
11203;SDS011;5659;49.408;11.116;2022-11-20T03:22:55;60.47;;;31.47;;
11203;SDS011;5659;49.408;11.116;2022-11-20T03:25:21;89.80;;;37.53;;
11203;SDS011;5659;49.408;11.116;2022-11-20T03:27:47;86.97;;;40.13;;
11203;SDS011;5659;49.408;11.116;2022-11-20T03:30:13;68.43;;;31.70;;
11203;SDS011;5659;49.408;11.116;2022-11-20T03:32:40;66.50;;;30.47;;
11203;SDS011;5659;49.408;11.116;2022-11-20T03:35:06;67.47;;;31.17;;
11203;SDS011;5659;49.408;11.116;2022-11-20T03:37:32;65.10;;;30.03;;
11203;SDS011;5659;49.408;11.116;2022-11-20T03:39:58;75.97;;;32.37;;
11203;SDS011;5659;49.408;11.116;2022-11-20T03:42:24;76.80;;;37.80;;
11203;SDS011;5659;49.408;11.116;2022-11-20T03:45:08;85.60;;;40.27;;
11203;SDS011;5659;49.408;11.116;2022-11-20T03:47:34;105.10;;;41.63;;
11203;SDS011;5659;49.408;11.116;2022-11-20T03:50:00;100.23;;;44.23;;
11203;SDS011;5659;49.408;11.116;2022-11-20T03:52:26;100.53;;;42.90;;
11203;SDS011;5659;49.408;11.116;2022-11-20T03:54:52;112.60;;;41.20;;
11203;SDS011;5659;49.408;11.116;2022-11-20T03:57:18;88.77;;;39.90;;
11203;SDS011;5659;49.408;11.116;2022-11-20T03:59:44;83.63;;;36.47;;
11203;SDS011;5659;49.408;11.116;2022-11-20T04:02:10;99.73;;;38.47;;
11203;SDS011;5659;49.408;11.116;2022-11-20T04:04:36;105.20;;;39.60;;
11203;SDS011;5659;49.408;11.116;2022-11-20T04:07:02;91.20;;;37.53;;
11203;SDS011;5659;49.408;11.116;2022-11-20T04:09:28;65.37;;;30.73;;
11203;SDS011;5659;49.408;11.116;2022-11-20T04:11:54;64.27;;;29.47;;
11203;SDS011;5659;49.408;11.116;2022-11-20T04:14:20;79.17;;;30.70;;
11203;SDS011;5659;49.408;11.116;2022-11-20T04:16:46;76.17;;;32.13;;
11203;SDS011;5659;49.408;11.116;2022-11-20T04:19:13;64.70;;;30.73;;
11203;SDS011;5659;49.408;11.116;2022-11-20T04:21:40;73.43;;;29.90;;
11203;SDS011;5659;49.408;11.116;2022-11-20T04:24:06;60.80;;;27.20;;
11203;SDS011;5659;49.408;11.116;2022-11-20T04:26:32;69.33;;;28.23;;
11203;SDS011;5659;49.408;11.116;2022-11-20T04:28:58;67.33;;;28.30;;
11203;SDS011;5659;49.408;11.116;2022-11-20T04:31:27;86.50;;;29.80;;
11203;SDS011;5659;49.408;11.116;2022-11-20T04:33:54;75.30;;;28.43;;
11203;SDS011;5659;49.408;11.116;2022-11-20T04:36:24;74.37;;;28.80;;
11203;SDS011;5659;49.408;11.116;2022-11-20T04:38:51;68.30;;;28.17;;
11203;SDS011;5659;49.408;11.116;2022-11-20T04:41:18;100.97;;;29.13;;
11203;SDS011;5659;49.408;11.116;2022-11-20T04:43:51;61.20;;;26.03;;
11203;SDS011;5659;49.408;11.116;2022-11-20T04:46:18;78.67;;;27.03;;
11203;SDS011;5659;49.408;11.116;2022-11-20T04:48:45;67.87;;;28.10;;
11203;SDS011;5659;49.408;11.116;2022-11-20T04:51:11;64.70;;;27.47;;
11203;SDS011;5659;49.408;11.116;2022-11-20T04:53:37;50.87;;;25.47;;
11203;SDS011;5659;49.408;11.116;2022-11-20T04:56:04;59.57;;;25.10;;
11203;SDS011;5659;49.408;11.116;2022-11-20T04:58:30;65.43;;;27.57;;
11203;SDS011;5659;49.408;11.116;2022-11-20T05:01:03;71.63;;;27.23;;
11203;SDS011;5659;49.408;11.116;2022-11-20T05:03:30;67.80;;;26.90;;
11203;SDS011;5659;49.408;11.116;2022-11-20T05:05:55;54.77;;;26.27;;
11203;SDS011;5659;49.408;11.116;2022-11-20T05:08:21;54.47;;;25.93;;
11203;SDS011;5659;49.408;11.116;2022-11-20T05:10:47;54.80;;;26.50;;
11203;SDS011;5659;49.408;11.116;2022-11-20T05:13:13;49.17;;;25.13;;
11203;SDS011;5659;49.408;11.116;2022-11-20T05:15:39;55.17;;;26.83;;
11203;SDS011;5659;49.408;11.116;2022-11-20T05:18:05;54.40;;;25.90;;
11203;SDS011;5659;49.408;11.116;2022-11-20T05:20:32;51.77;;;25.57;;
11203;SDS011;5659;49.408;11.116;2022-11-20T05:22:58;55.07;;;25.60;;
11203;SDS011;5659;49.408;11.116;2022-11-20T05:25:24;54.00;;;25.20;;
11203;SDS011;5659;49.408;11.116;2022-11-20T05:27:50;61.07;;;25.43;;
11203;SDS011;5659;49.408;11.116;2022-11-20T05:30:16;59.27;;;25.03;;
11203;SDS011;5659;49.408;11.116;2022-11-20T05:32:42;58.57;;;25.17;;
11203;SDS011;5659;49.408;11.116;2022-11-20T05:35:08;51.47;;;23.73;;
11203;SDS011;5659;49.408;11.116;2022-11-20T05:37:34;61.37;;;24.10;;
11203;SDS011;5659;49.408;11.116;2022-11-20T05:40:00;52.30;;;23.40;;
11203;SDS011;5659;49.408;11.116;2022-11-20T05:42:26;52.73;;;22.73;;
11203;SDS011;5659;49.408;11.116;2022-11-20T05:45:00;91.73;;;24.60;;
11203;SDS011;5659;49.408;11.116;2022-11-20T05:47:27;61.80;;;23.53;;
11203;SDS011;5659;49.408;11.116;2022-11-20T05:49:54;56.73;;;23.50;;
11203;SDS011;5659;49.408;11.116;2022-11-20T05:52:20;58.13;;;23.07;;
11203;SDS011;5659;49.408;11.116;2022-11-20T05:54:46;62.47;;;24.00;;
11203;SDS011;5659;49.408;11.116;2022-11-20T05:57:12;55.33;;;24.73;;
11203;SDS011;5659;49.408;11.116;2022-11-20T05:59:37;50.80;;;22.23;;
11203;SDS011;5659;49.408;11.116;2022-11-20T06:02:03;46.27;;;21.63;;
11203;SDS011;5659;49.408;11.116;2022-11-20T06:04:29;50.00;;;21.80;;
11203;SDS011;5659;49.408;11.116;2022-11-20T06:06:55;52.53;;;20.67;;
11203;SDS011;5659;49.408;11.116;2022-11-20T06:09:21;43.93;;;20.97;;
11203;SDS011;5659;49.408;11.116;2022-11-20T06:11:47;57.63;;;21.27;;
11203;SDS011;5659;49.408;11.116;2022-11-20T06:14:13;52.23;;;20.90;;
11203;SDS011;5659;49.408;11.116;2022-11-20T06:16:39;41.67;;;20.00;;
11203;SDS011;5659;49.408;11.116;2022-11-20T06:19:05;55.30;;;20.97;;
11203;SDS011;5659;49.408;11.116;2022-11-20T06:21:31;68.87;;;20.90;;
11203;SDS011;5659;49.408;11.116;2022-11-20T06:23:57;46.03;;;20.53;;
11203;SDS011;5659;49.408;11.116;2022-11-20T06:26:24;51.23;;;19.17;;
11203;SDS011;5659;49.408;11.116;2022-11-20T06:28:50;53.30;;;18.47;;
11203;SDS011;5659;49.408;11.116;2022-11-20T06:31:18;50.23;;;18.27;;
11203;SDS011;5659;49.408;11.116;2022-11-20T06:33:44;48.30;;;19.23;;
11203;SDS011;5659;49.408;11.116;2022-11-20T06:36:11;35.70;;;17.40;;
11203;SDS011;5659;49.408;11.116;2022-11-20T06:38:38;44.90;;;18.47;;
11203;SDS011;5659;49.408;11.116;2022-11-20T06:41:08;43.53;;;17.50;;
11203;SDS011;5659;49.408;11.116;2022-11-20T06:43:35;41.87;;;18.07;;
11203;SDS011;5659;49.408;11.116;2022-11-20T06:46:01;37.83;;;17.87;;
11203;SDS011;5659;49.408;11.116;2022-11-20T06:48:28;40.67;;;18.60;;
11203;SDS011;5659;49.408;11.116;2022-11-20T06:50:54;47.87;;;18.27;;
11203;SDS011;5659;49.408;11.116;2022-11-20T06:53:20;35.07;;;17.57;;
11203;SDS011;5659;49.408;11.116;2022-11-20T06:55:48;33.77;;;16.67;;
11203;SDS011;5659;49.408;11.116;2022-11-20T06:58:16;42.27;;;17.50;;
11203;SDS011;5659;49.408;11.116;2022-11-20T07:00:43;48.23;;;17.30;;
11203;SDS011;5659;49.408;11.116;2022-11-20T07:03:10;32.60;;;17.10;;
11203;SDS011;5659;49.408;11.116;2022-11-20T07:05:36;40.20;;;18.50;;
11203;SDS011;5659;49.408;11.116;2022-11-20T07:08:03;36.17;;;17.23;;
11203;SDS011;5659;49.408;11.116;2022-11-20T07:10:30;38.00;;;17.03;;
11203;SDS011;5659;49.408;11.116;2022-11-20T07:12:56;35.17;;;17.13;;
11203;SDS011;5659;49.408;11.116;2022-11-20T07:15:23;34.97;;;16.40;;
11203;SDS011;5659;49.408;11.116;2022-11-20T07:17:49;35.50;;;17.17;;
11203;SDS011;5659;49.408;11.116;2022-11-20T07:20:15;29.43;;;16.50;;
11203;SDS011;5659;49.408;11.116;2022-11-20T07:22:41;40.47;;;15.70;;
11203;SDS011;5659;49.408;11.116;2022-11-20T07:25:08;33.23;;;16.57;;
11203;SDS011;5659;49.408;11.116;2022-11-20T07:27:34;33.27;;;15.93;;
11203;SDS011;5659;49.408;11.116;2022-11-20T07:30:01;31.33;;;15.20;;
11203;SDS011;5659;49.408;11.116;2022-11-20T07:32:27;28.97;;;15.30;;
11203;SDS011;5659;49.408;11.116;2022-11-20T07:34:53;29.90;;;14.60;;
11203;SDS011;5659;49.408;11.116;2022-11-20T07:37:19;29.77;;;15.27;;
11203;SDS011;5659;49.408;11.116;2022-11-20T07:39:45;26.47;;;13.87;;
11203;SDS011;5659;49.408;11.116;2022-11-20T07:42:11;28.63;;;15.40;;
11203;SDS011;5659;49.408;11.116;2022-11-20T07:44:37;26.20;;;14.93;;
11203;SDS011;5659;49.408;11.116;2022-11-20T07:47:03;28.03;;;15.30;;
11203;SDS011;5659;49.408;11.116;2022-11-20T07:49:29;31.50;;;13.83;;
11203;SDS011;5659;49.408;11.116;2022-11-20T07:51:55;25.47;;;13.20;;
11203;SDS011;5659;49.408;11.116;2022-11-20T07:54:21;26.23;;;13.37;;
11203;SDS011;5659;49.408;11.116;2022-11-20T07:56:48;29.50;;;14.57;;
11203;SDS011;5659;49.408;11.116;2022-11-20T07:59:14;27.83;;;15.20;;
11203;SDS011;5659;49.408;11.116;2022-11-20T08:01:41;26.73;;;14.87;;
11203;SDS011;5659;49.408;11.116;2022-11-20T08:04:07;26.13;;;14.03;;
11203;SDS011;5659;49.408;11.116;2022-11-20T08:06:33;31.13;;;15.33;;
11203;SDS011;5659;49.408;11.116;2022-11-20T08:08:59;28.37;;;14.90;;
11203;SDS011;5659;49.408;11.116;2022-11-20T08:11:25;28.97;;;13.97;;
11203;SDS011;5659;49.408;11.116;2022-11-20T08:14:10;27.03;;;14.37;;
11203;SDS011;5659;49.408;11.116;2022-11-20T08:16:43;26.33;;;14.20;;
11203;SDS011;5659;49.408;11.116;2022-11-20T08:19:09;28.40;;;14.17;;
11203;SDS011;5659;49.408;11.116;2022-11-20T08:21:35;28.23;;;14.67;;
11203;SDS011;5659;49.408;11.116;2022-11-20T08:24:01;24.80;;;13.93;;
11203;SDS011;5659;49.408;11.116;2022-11-20T08:26:27;28.10;;;14.53;;
11203;SDS011;5659;49.408;11.116;2022-11-20T08:28:54;24.30;;;13.33;;
11203;SDS011;5659;49.408;11.116;2022-11-20T08:31:20;28.80;;;13.53;;
11203;SDS011;5659;49.408;11.116;2022-11-20T08:33:46;26.77;;;13.37;;
11203;SDS011;5659;49.408;11.116;2022-11-20T08:36:12;28.17;;;13.53;;
11203;SDS011;5659;49.408;11.116;2022-11-20T08:38:38;25.83;;;13.20;;
11203;SDS011;5659;49.408;11.116;2022-11-20T08:41:04;24.60;;;12.57;;
11203;SDS011;5659;49.408;11.116;2022-11-20T08:43:49;26.47;;;12.63;;
11203;SDS011;5659;49.408;11.116;2022-11-20T08:46:15;26.87;;;13.97;;
11203;SDS011;5659;49.408;11.116;2022-11-20T08:48:41;24.13;;;13.23;;
11203;SDS011;5659;49.408;11.116;2022-11-20T08:51:07;23.17;;;13.63;;
11203;SDS011;5659;49.408;11.116;2022-11-20T08:53:33;26.07;;;13.33;;
11203;SDS011;5659;49.408;11.116;2022-11-20T08:55:59;24.10;;;13.50;;
11203;SDS011;5659;49.408;11.116;2022-11-20T08:58:25;26.40;;;13.23;;
11203;SDS011;5659;49.408;11.116;2022-11-20T09:00:51;81.67;;;34.57;;
11203;SDS011;5659;49.408;11.116;2022-11-20T09:03:18;52.53;;;23.73;;
11203;SDS011;5659;49.408;11.116;2022-11-20T09:05:44;54.53;;;21.33;;
11203;SDS011;5659;49.408;11.116;2022-11-20T09:08:10;27.10;;;13.67;;
11203;SDS011;5659;49.408;11.116;2022-11-20T09:10:36;19.90;;;12.43;;
11203;SDS011;5659;49.408;11.116;2022-11-20T09:13:04;28.47;;;13.03;;
11203;SDS011;5659;49.408;11.116;2022-11-20T09:15:30;22.70;;;13.00;;
11203;SDS011;5659;49.408;11.116;2022-11-20T09:17:57;22.70;;;12.10;;
11203;SDS011;5659;49.408;11.116;2022-11-20T09:20:23;22.70;;;11.73;;
11203;SDS011;5659;49.408;11.116;2022-11-20T09:22:49;21.40;;;12.50;;
11203;SDS011;5659;49.408;11.116;2022-11-20T09:25:15;25.17;;;12.87;;
11203;SDS011;5659;49.408;11.116;2022-11-20T09:27:41;24.63;;;13.07;;
11203;SDS011;5659;49.408;11.116;2022-11-20T09:30:09;19.20;;;12.03;;
11203;SDS011;5659;49.408;11.116;2022-11-20T09:32:35;24.17;;;13.13;;
11203;SDS011;5659;49.408;11.116;2022-11-20T09:35:01;21.33;;;13.17;;
11203;SDS011;5659;49.408;11.116;2022-11-20T09:37:27;25.70;;;12.87;;
11203;SDS011;5659;49.408;11.116;2022-11-20T09:39:53;23.40;;;12.80;;
11203;SDS011;5659;49.408;11.116;2022-11-20T09:44:51;22.93;;;12.87;;
11203;SDS011;5659;49.408;11.116;2022-11-20T09:52:35;26.73;;;13.70;;
11203;SDS011;5659;49.408;11.116;2022-11-20T09:55:04;22.30;;;13.10;;
11203;SDS011;5659;49.408;11.116;2022-11-20T09:57:35;20.83;;;12.20;;
11203;SDS011;5659;49.408;11.116;2022-11-20T10:00:03;24.00;;;12.50;;
11203;SDS011;5659;49.408;11.116;2022-11-20T10:02:52;18.50;;;11.43;;
11203;SDS011;5659;49.408;11.116;2022-11-20T10:15:27;1.03;;;1.03;;
11203;SDS011;5659;49.408;11.116;2022-11-20T10:25:43;0.70;;;0.70;;
11203;SDS011;5659;49.408;11.116;2022-11-20T10:30:41;0.80;;;0.80;;
11203;SDS011;5659;49.408;11.116;2022-11-20T10:35:45;1.43;;;1.43;;
11203;SDS011;5659;49.408;11.116;2022-11-20T10:38:17;0.73;;;0.73;;
11203;SDS011;5659;49.408;11.116;2022-11-20T10:40:44;0.70;;;0.70;;
11203;SDS011;5659;49.408;11.116;2022-11-20T10:43:18;1.43;;;1.33;;
11203;SDS011;5659;49.408;11.116;2022-11-20T10:45:47;7.63;;;1.57;;
11203;SDS011;5659;49.408;11.116;2022-11-20T10:48:16;0.90;;;0.90;;
11203;SDS011;5659;49.408;11.116;2022-11-20T10:50:52;1.73;;;1.63;;
11203;SDS011;5659;49.408;11.116;2022-11-20T10:53:30;0.70;;;0.70;;
11203;SDS011;5659;49.408;11.116;2022-11-20T10:56:02;3.70;;;1.33;;
11203;SDS011;5659;49.408;11.116;2022-11-20T11:01:11;0.70;;;0.70;;
11203;SDS011;5659;49.408;11.116;2022-11-20T11:03:39;0.80;;;0.80;;
11203;SDS011;5659;49.408;11.116;2022-11-20T11:08:43;0.80;;;0.80;;
11203;SDS011;5659;49.408;11.116;2022-11-20T11:11:18;0.80;;;0.80;;
11203;SDS011;5659;49.408;11.116;2022-11-20T11:13:46;1.03;;;1.03;;
11203;SDS011;5659;49.408;11.116;2022-11-20T11:16:25;0.80;;;0.80;;
11203;SDS011;5659;49.408;11.116;2022-11-20T11:19:03;0.60;;;0.60;;
11203;SDS011;5659;49.408;11.116;2022-11-20T11:21:29;0.70;;;0.70;;
11203;SDS011;5659;49.408;11.116;2022-11-20T11:24:37;0.70;;;0.70;;
11203;SDS011;5659;49.408;11.116;2022-11-20T11:26:50;0.70;;;0.70;;
11203;SDS011;5659;49.408;11.116;2022-11-20T11:29:17;0.60;;;0.60;;
11203;SDS011;5659;49.408;11.116;2022-11-20T11:31:43;0.70;;;0.70;;
11203;SDS011;5659;49.408;11.116;2022-11-20T11:34:13;0.80;;;0.80;;
11203;SDS011;5659;49.408;11.116;2022-11-20T11:36:40;0.90;;;0.90;;
11203;SDS011;5659;49.408;11.116;2022-11-20T11:39:08;1.00;;;1.00;;
11203;SDS011;5659;49.408;11.116;2022-11-20T11:41:36;0.80;;;0.80;;
11203;SDS011;5659;49.408;11.116;2022-11-20T11:46:59;0.80;;;0.80;;
11203;SDS011;5659;49.408;11.116;2022-11-20T11:49:25;0.80;;;0.80;;
11203;SDS011;5659;49.408;11.116;2022-11-20T11:52:03;0.80;;;0.80;;
11203;SDS011;5659;49.408;11.116;2022-11-20T11:54:38;0.80;;;0.80;;
11203;SDS011;5659;49.408;11.116;2022-11-20T11:57:10;0.70;;;0.70;;
11203;SDS011;5659;49.408;11.116;2022-11-20T12:02:05;0.60;;;0.60;;
11203;SDS011;5659;49.408;11.116;2022-11-20T12:09:49;0.70;;;0.70;;
11203;SDS011;5659;49.408;11.116;2022-11-20T12:12:18;0.70;;;0.70;;
11203;SDS011;5659;49.408;11.116;2022-11-20T12:14:48;0.70;;;0.70;;
11203;SDS011;5659;49.408;11.116;2022-11-20T12:17:17;0.70;;;0.70;;
11203;SDS011;5659;49.408;11.116;2022-11-20T12:19:43;0.80;;;0.80;;
11203;SDS011;5659;49.408;11.116;2022-11-20T12:24:42;0.60;;;0.60;;
11203;SDS011;5659;49.408;11.116;2022-11-20T12:27:19;0.70;;;0.70;;
11203;SDS011;5659;49.408;11.116;2022-11-20T12:29:55;1.57;;;1.47;;
11203;SDS011;5659;49.408;11.116;2022-11-20T12:35:15;0.70;;;0.70;;
11203;SDS011;5659;49.408;11.116;2022-11-20T12:37:54;1.00;;;1.00;;
11203;SDS011;5659;49.408;11.116;2022-11-20T12:43:02;0.70;;;0.70;;
11203;SDS011;5659;49.408;11.116;2022-11-20T12:45:56;0.70;;;0.70;;
11203;SDS011;5659;49.408;11.116;2022-11-20T12:48:35;0.90;;;0.90;;
11203;SDS011;5659;49.408;11.116;2022-11-20T12:56:28;0.70;;;0.70;;
11203;SDS011;5659;49.408;11.116;2022-11-20T13:01:42;0.80;;;0.80;;
11203;SDS011;5659;49.408;11.116;2022-11-20T13:04:16;0.70;;;0.70;;
11203;SDS011;5659;49.408;11.116;2022-11-20T13:06:44;0.70;;;0.70;;
11203;SDS011;5659;49.408;11.116;2022-11-20T13:09:11;1.73;;;1.63;;
11203;SDS011;5659;49.408;11.116;2022-11-20T13:14:07;0.80;;;0.80;;
11203;SDS011;5659;49.408;11.116;2022-11-20T13:16:50;0.70;;;0.70;;
11203;SDS011;5659;49.408;11.116;2022-11-20T13:19:18;0.80;;;0.80;;
11203;SDS011;5659;49.408;11.116;2022-11-20T13:21:48;0.80;;;0.80;;
11203;SDS011;5659;49.408;11.116;2022-11-20T13:26:44;0.80;;;0.80;;
11203;SDS011;5659;49.408;11.116;2022-11-20T13:29:19;0.80;;;0.80;;
11203;SDS011;5659;49.408;11.116;2022-11-20T13:31:46;0.70;;;0.70;;
11203;SDS011;5659;49.408;11.116;2022-11-20T13:34:14;1.53;;;1.20;;
11203;SDS011;5659;49.408;11.116;2022-11-20T13:36:50;0.80;;;0.80;;
11203;SDS011;5659;49.408;11.116;2022-11-20T13:41:55;2.03;;;1.93;;
11203;SDS011;5659;49.408;11.116;2022-11-20T13:46:47;1.80;;;1.43;;
11203;SDS011;5659;49.408;11.116;2022-11-20T13:49:18;2.20;;;2.10;;
11203;SDS011;5659;49.408;11.116;2022-11-20T13:51:45;0.80;;;0.80;;
11203;SDS011;5659;49.408;11.116;2022-11-20T13:57:17;0.80;;;0.80;;
11203;SDS011;5659;49.408;11.116;2022-11-20T13:59:50;0.90;;;0.90;;
11203;SDS011;5659;49.408;11.116;2022-11-20T14:02:19;3.90;;;3.60;;
11203;SDS011;5659;49.408;11.116;2022-11-20T14:04:49;1.10;;;1.00;;
11203;SDS011;5659;49.408;11.116;2022-11-20T14:07:17;0.80;;;0.80;;
11203;SDS011;5659;49.408;11.116;2022-11-20T14:09:54;0.70;;;0.70;;
11203;SDS011;5659;49.408;11.116;2022-11-20T14:12:21;0.70;;;0.70;;
11203;SDS011;5659;49.408;11.116;2022-11-20T14:14:49;0.70;;;0.70;;
11203;SDS011;5659;49.408;11.116;2022-11-20T14:17:20;0.60;;;0.60;;
11203;SDS011;5659;49.408;11.116;2022-11-20T14:19:47;0.60;;;0.60;;
11203;SDS011;5659;49.408;11.116;2022-11-20T14:22:21;0.80;;;0.80;;
11203;SDS011;5659;49.408;11.116;2022-11-20T14:25:01;0.77;;;0.77;;
11203;SDS011;5659;49.408;11.116;2022-11-20T14:27:27;0.90;;;0.90;;
11203;SDS011;5659;49.408;11.116;2022-11-20T14:29:53;0.80;;;0.80;;
11203;SDS011;5659;49.408;11.116;2022-11-20T14:32:21;0.70;;;0.70;;
11203;SDS011;5659;49.408;11.116;2022-11-20T14:34:48;0.90;;;0.90;;
11203;SDS011;5659;49.408;11.116;2022-11-20T14:37:20;0.80;;;0.80;;
11203;SDS011;5659;49.408;11.116;2022-11-20T14:39:54;0.80;;;0.80;;
11203;SDS011;5659;49.408;11.116;2022-11-20T14:42:21;0.80;;;0.80;;
11203;SDS011;5659;49.408;11.116;2022-11-20T14:44:48;0.80;;;0.80;;
11203;SDS011;5659;49.408;11.116;2022-11-20T14:47:17;1.40;;;1.30;;
11203;SDS011;5659;49.408;11.116;2022-11-20T14:49:43;0.80;;;0.80;;
11203;SDS011;5659;49.408;11.116;2022-11-20T14:52:11;0.80;;;0.80;;
11203;SDS011;5659;49.408;11.116;2022-11-20T14:54:51;0.70;;;0.70;;
11203;SDS011;5659;49.408;11.116;2022-11-20T14:57:22;0.77;;;0.77;;
11203;SDS011;5659;49.408;11.116;2022-11-20T14:59:49;0.80;;;0.80;;
11203;SDS011;5659;49.408;11.116;2022-11-20T15:02:15;0.70;;;0.70;;
11203;SDS011;5659;49.408;11.116;2022-11-20T15:04:48;0.70;;;0.70;;
11203;SDS011;5659;49.408;11.116;2022-11-20T15:07:28;0.60;;;0.60;;
11203;SDS011;5659;49.408;11.116;2022-11-20T15:12:26;0.70;;;0.70;;
11203;SDS011;5659;49.408;11.116;2022-11-20T15:14:52;0.70;;;0.70;;
11203;SDS011;5659;49.408;11.116;2022-11-20T15:17:18;0.83;;;0.83;;
11203;SDS011;5659;49.408;11.116;2022-11-20T15:19:44;2.40;;;2.00;;
11203;SDS011;5659;49.408;11.116;2022-11-20T15:22:11;0.80;;;0.80;;
11203;SDS011;5659;49.408;11.116;2022-11-20T15:24:44;1.10;;;1.10;;
11203;SDS011;5659;49.408;11.116;2022-11-20T15:27:10;0.80;;;0.80;;
11203;SDS011;5659;49.408;11.116;2022-11-20T15:29:37;0.60;;;0.60;;
11203;SDS011;5659;49.408;11.116;2022-11-20T15:32:03;1.00;;;1.00;;
11203;SDS011;5659;49.408;11.116;2022-11-20T15:34:29;0.90;;;0.90;;
11203;SDS011;5659;49.408;11.116;2022-11-20T15:36:55;0.80;;;0.80;;
11203;SDS011;5659;49.408;11.116;2022-11-20T15:39:21;0.80;;;0.80;;
11203;SDS011;5659;49.408;11.116;2022-11-20T15:41:47;0.80;;;0.80;;
11203;SDS011;5659;49.408;11.116;2022-11-20T15:44:13;0.90;;;0.90;;
11203;SDS011;5659;49.408;11.116;2022-11-20T15:46:39;0.80;;;0.80;;
11203;SDS011;5659;49.408;11.116;2022-11-20T15:49:14;0.70;;;0.70;;
11203;SDS011;5659;49.408;11.116;2022-11-20T15:51:41;0.80;;;0.80;;
11203;SDS011;5659;49.408;11.116;2022-11-20T15:54:21;1.13;;;1.13;;
11203;SDS011;5659;49.408;11.116;2022-11-20T15:56:48;1.03;;;1.03;;